Time,TemperatureF,DewpointF,PressureIn,WindDirection,WindDirectionDegrees,WindSpeedMPH,WindSpeedGustMPH,Humidity,HourlyPrecipIn,Conditions,Clouds,dailyrainin,SoftwareType,DateUTC
2013-02-03 00:00:00,38.7,34.3,30.05,WSW,249,5.0,5.0,84,0.00,,,0.00,Wunderground v.1.15,2013-02-03 05:00:00,
2013-02-03 00:01:00,38.7,34.3,30.05,WSW,249,5.0,5.0,84,0.00,,,0.00,Wunderground v.1.15,2013-02-03 05:01:00,
2013-02-03 00:02:00,38.7,34.3,30.05,WSW,248,5.0,5.0,84,0.00,,,0.00,Wunderground v.1.15,2013-02-03 05:02:00,
2013-02-03 00:04:00,38.7,34.3,30.05,West,271,6.0,6.0,84,0.00,,,0.00,Wunderground v.1.15,2013-02-03 05:04:00,
2013-02-03 00:10:00,38.5,34.4,30.05,WSW,249,5.0,5.0,85,0.00,,,0.00,Wunderground v.1.15,2013-02-03 05:10:00,
2013-02-03 00:15:00,38.5,34.4,30.04,West,273,5.0,7.0,85,0.00,,,0.00,Wunderground v.1.15,2013-02-03 05:15:00,
2013-02-03 00:21:00,38.4,34.6,30.04,SW,225,4.0,6.0,86,0.00,,,0.00,Wunderground v.1.15,2013-02-03 05:21:00,
2013-02-03 00:26:00,38.3,34.5,30.04,WNW,284,4.0,6.0,86,0.00,,,0.00,Wunderground v.1.15,2013-02-03 05:26:00,
2013-02-03 00:32:00,38.2,34.4,30.03,West,267,4.0,6.0,86,0.00,,,0.00,Wunderground v.1.15,2013-02-03 05:32:00,
2013-02-03 00:37:00,38.2,34.4,30.03,West,260,4.0,6.0,86,0.00,,,0.00,Wunderground v.1.15,2013-02-03 05:37:00,
2013-02-03 00:43:00,38.1,34.6,30.03,West,265,3.0,4.0,87,0.00,,,0.00,Wunderground v.1.15,2013-02-03 05:43:00,
2013-02-03 00:48:00,38.0,34.5,30.03,West,277,3.0,5.0,87,0.00,,,0.00,Wunderground v.1.15,2013-02-03 05:48:00,
2013-02-03 00:54:00,37.9,34.4,30.03,NW,309,3.0,5.0,87,0.00,,,0.00,Wunderground v.1.15,2013-02-03 05:54:00,
2013-02-03 00:59:00,37.8,34.6,30.02,West,264,3.0,5.0,88,0.00,,,0.00,Wunderground v.1.15,2013-02-03 05:59:00,
2013-02-03 01:05:00,37.8,34.6,30.02,WNW,295,3.0,7.0,88,0.00,,,0.00,Wunderground v.1.15,2013-02-03 06:05:00,
2013-02-03 01:11:00,37.7,34.5,30.02,West,271,3.0,3.0,88,0.00,,,0.00,Wunderground v.1.15,2013-02-03 06:11:00,
2013-02-03 01:16:00,37.6,34.4,30.01,WSW,258,3.0,4.0,88,0.00,,,0.00,Wunderground v.1.15,2013-02-03 06:16:00,
2013-02-03 01:22:00,37.5,34.6,30.01,WNW,291,3.0,3.0,89,0.00,,,0.00,Wunderground v.1.15,2013-02-03 06:22:00,
2013-02-03 01:27:00,37.4,34.5,30.00,WNW,282,3.0,3.0,89,0.00,,,0.00,Wunderground v.1.15,2013-02-03 06:27:00,
2013-02-03 01:33:00,37.4,34.5,30.00,West,268,3.0,3.0,89,0.00,,,0.00,Wunderground v.1.15,2013-02-03 06:33:00,
2013-02-03 01:38:00,37.4,34.5,30.00,WSW,250,3.0,6.0,89,0.00,,,0.00,Wunderground v.1.15,2013-02-03 06:38:00,
2013-02-03 01:44:00,37.3,34.4,30.00,WSW,248,3.0,5.0,89,0.00,,,0.00,Wunderground v.1.15,2013-02-03 06:44:00,
2013-02-03 01:49:00,37.3,34.4,30.00,WSW,243,3.0,5.0,89,0.00,,,0.00,Wunderground v.1.15,2013-02-03 06:49:00,
2013-02-03 01:55:00,37.3,34.4,29.99,SW,225,3.0,5.0,89,0.00,,,0.00,Wunderground v.1.15,2013-02-03 06:55:00,
2013-02-03 02:00:00,37.4,34.5,29.99,SW,223,4.0,4.0,89,0.00,,,0.00,Wunderground v.1.15,2013-02-03 07:00:00,
2013-02-03 02:06:00,37.4,34.5,29.99,WSW,247,3.0,4.0,89,0.00,,,0.00,Wunderground v.1.15,2013-02-03 07:06:00,
2013-02-03 02:12:00,37.3,34.4,29.99,WSW,237,3.0,5.0,89,0.00,,,0.00,Wunderground v.1.15,2013-02-03 07:12:00,
2013-02-03 02:18:00,37.4,34.5,29.99,SW,224,4.0,6.0,89,0.00,,,0.00,Wunderground v.1.15,2013-02-03 07:18:00,
2013-02-03 02:23:00,37.4,34.5,29.99,SW,225,4.0,6.0,89,0.00,,,0.00,Wunderground v.1.15,2013-02-03 07:23:00,
2013-02-03 02:29:00,37.4,34.5,29.99,SW,220,4.0,6.0,89,0.00,,,0.00,Wunderground v.1.15,2013-02-03 07:29:00,
2013-02-03 02:34:00,37.3,34.4,29.99,SW,231,3.0,5.0,89,0.00,,,0.00,Wunderground v.1.15,2013-02-03 07:34:00,
2013-02-03 02:40:00,37.3,34.4,29.99,SW,227,4.0,4.0,89,0.00,,,0.00,Wunderground v.1.15,2013-02-03 07:40:00,
2013-02-03 02:46:00,37.1,34.2,29.99,SW,227,3.0,4.0,89,0.00,,,0.00,Wunderground v.1.15,2013-02-03 07:46:00,
2013-02-03 02:51:00,36.9,34.2,29.98,SSW,212,3.0,3.0,90,0.00,,,0.00,Wunderground v.1.15,2013-02-03 07:51:00,
2013-02-03 02:57:00,36.6,33.7,29.98,SW,214,3.0,4.0,89,0.00,,,0.00,Wunderground v.1.15,2013-02-03 07:57:00,
2013-02-03 03:03:00,36.2,33.5,29.98,SW,214,3.0,3.0,90,0.00,,,0.00,Wunderground v.1.15,2013-02-03 08:03:00,
2013-02-03 03:08:00,36.2,33.5,29.97,SSW,208,3.0,5.0,90,0.00,,,0.00,Wunderground v.1.15,2013-02-03 08:08:00,
2013-02-03 03:14:00,36.1,33.5,29.97,SSW,208,2.0,3.0,90,0.00,,,0.00,Wunderground v.1.15,2013-02-03 08:14:00,
2013-02-03 03:20:00,35.9,33.3,29.97,SSW,208,1.0,1.0,90,0.00,,,0.00,Wunderground v.1.15,2013-02-03 08:20:00,
2013-02-03 03:25:00,35.8,33.4,29.96,SSW,208,1.0,1.0,91,0.00,,,0.00,Wunderground v.1.15,2013-02-03 08:25:00,
2013-02-03 03:31:00,35.7,33.3,29.96,SSW,208,2.0,3.0,91,0.00,,,0.00,Wunderground v.1.15,2013-02-03 08:31:00,
2013-02-03 03:37:00,35.5,32.9,29.96,SSW,208,3.0,3.0,90,0.00,,,0.00,Wunderground v.1.15,2013-02-03 08:37:00,
2013-02-03 03:42:00,35.1,32.7,29.96,SSW,208,2.0,2.0,91,0.00,,,0.00,Wunderground v.1.15,2013-02-03 08:42:00,
2013-02-03 03:48:00,34.7,32.3,29.96,SSW,208,1.0,2.0,91,0.00,,,0.00,Wunderground v.1.15,2013-02-03 08:48:00,
2013-02-03 03:54:00,34.7,32.6,29.96,SSW,208,0.0,2.0,92,0.00,,,0.00,Wunderground v.1.15,2013-02-03 08:54:00,
2013-02-03 03:59:00,34.6,32.5,29.95,SSW,208,0.0,2.0,92,0.00,,,0.00,Wunderground v.1.15,2013-02-03 08:59:00,
2013-02-03 04:05:00,34.9,33.1,29.95,SSW,208,1.0,3.0,93,0.00,,,0.00,Wunderground v.1.15,2013-02-03 09:05:00,
2013-02-03 04:11:00,35.2,33.4,29.95,SSW,208,2.0,4.0,93,0.00,,,0.00,Wunderground v.1.15,2013-02-03 09:11:00,
2013-02-03 04:16:00,35.5,33.7,29.95,SSW,208,3.0,4.0,93,0.00,,,0.00,Wunderground v.1.15,2013-02-03 09:16:00,
2013-02-03 04:22:00,35.6,33.8,29.95,SSW,208,3.0,3.0,93,0.00,,,0.00,Wunderground v.1.15,2013-02-03 09:22:00,
2013-02-03 04:28:00,35.7,33.9,29.95,SSW,208,3.0,4.0,93,0.00,,,0.00,Wunderground v.1.15,2013-02-03 09:28:00,
2013-02-03 04:33:00,35.7,33.6,29.95,SSW,208,2.0,3.0,92,0.00,,,0.00,Wunderground v.1.15,2013-02-03 09:33:00,
2013-02-03 04:39:00,35.7,33.9,29.95,SSW,208,1.0,3.0,93,0.00,,,0.00,Wunderground v.1.15,2013-02-03 09:39:00,
2013-02-03 04:45:00,35.8,34.0,29.95,SSW,208,1.0,1.0,93,0.00,,,0.00,Wunderground v.1.15,2013-02-03 09:45:00,
2013-02-03 04:50:00,35.9,34.1,29.95,SSW,208,0.0,2.0,93,0.00,,,0.00,Wunderground v.1.15,2013-02-03 09:50:00,
2013-02-03 04:56:00,36.0,34.2,29.94,SSW,208,0.0,2.0,93,0.00,,,0.00,Wunderground v.1.15,2013-02-03 09:56:00,
2013-02-03 05:02:00,36.0,34.2,29.95,SSW,208,0.0,1.0,93,0.00,,,0.00,Wunderground v.1.15,2013-02-03 10:02:00,
2013-02-03 05:07:00,35.7,33.6,29.94,SSW,208,0.0,1.0,92,0.00,,,0.00,Wunderground v.1.15,2013-02-03 10:07:00,
2013-02-03 05:13:00,35.5,33.4,29.95,SSW,208,0.0,0.0,92,0.00,,,0.00,Wunderground v.1.15,2013-02-03 10:13:00,
2013-02-03 05:19:00,35.4,33.6,29.95,SSW,208,0.0,0.0,93,0.00,,,0.00,Wunderground v.1.15,2013-02-03 10:19:00,
2013-02-03 05:24:00,35.3,33.2,29.95,SSW,208,0.0,0.0,92,0.00,,,0.00,Wunderground v.1.15,2013-02-03 10:24:00,
2013-02-03 05:30:00,35.3,33.5,29.95,SSW,208,0.0,0.0,93,0.00,,,0.00,Wunderground v.1.15,2013-02-03 10:30:00,
2013-02-03 05:36:00,35.2,33.4,29.95,SSW,208,0.0,2.0,93,0.00,,,0.00,Wunderground v.1.15,2013-02-03 10:36:00,
2013-02-03 05:41:00,35.1,33.3,29.95,SSW,208,1.0,1.0,93,0.00,,,0.00,Wunderground v.1.15,2013-02-03 10:41:00,
2013-02-03 05:47:00,35.0,33.2,29.94,SSW,208,1.0,2.0,93,0.00,,,0.00,Wunderground v.1.15,2013-02-03 10:47:00,
2013-02-03 05:52:00,35.0,33.2,29.94,SSW,208,1.0,3.0,93,0.00,,,0.00,Wunderground v.1.15,2013-02-03 10:52:00,
2013-02-03 05:58:00,34.9,33.1,29.94,SSW,208,2.0,3.0,93,0.00,,,0.00,Wunderground v.1.15,2013-02-03 10:58:00,
2013-02-03 06:04:00,34.8,33.0,29.94,SSW,208,1.0,2.0,93,0.00,,,0.00,Wunderground v.1.15,2013-02-03 11:04:00,
2013-02-03 06:10:00,34.7,33.2,29.94,SSW,208,0.0,0.0,94,0.00,,,0.00,Wunderground v.1.15,2013-02-03 11:10:00,
2013-02-03 06:15:00,34.7,33.2,29.94,SSW,208,0.0,0.0,94,0.00,,,0.00,Wunderground v.1.15,2013-02-03 11:15:00,
2013-02-03 06:21:00,34.6,33.1,29.94,SSW,208,0.0,2.0,94,0.00,,,0.00,Wunderground v.1.15,2013-02-03 11:21:00,
2013-02-03 06:27:00,34.5,33.0,29.95,SSW,208,2.0,3.0,94,0.00,,,0.00,Wunderground v.1.15,2013-02-03 11:27:00,
2013-02-03 06:32:00,34.6,33.1,29.94,SSW,208,2.0,2.0,94,0.00,,,0.00,Wunderground v.1.15,2013-02-03 11:32:00,
2013-02-03 06:38:00,34.7,33.2,29.94,SSW,208,1.0,2.0,94,0.00,,,0.00,Wunderground v.1.15,2013-02-03 11:38:00,
2013-02-03 06:44:00,34.8,33.2,29.94,SSW,208,1.0,3.0,94,0.00,,,0.00,Wunderground v.1.15,2013-02-03 11:44:00,
2013-02-03 06:50:00,34.8,33.2,29.95,SSW,208,1.0,1.0,94,0.00,,,0.00,Wunderground v.1.15,2013-02-03 11:50:00,
2013-02-03 06:55:00,34.8,33.2,29.95,SSW,208,0.0,2.0,94,0.00,,,0.00,Wunderground v.1.15,2013-02-03 11:55:00,
2013-02-03 07:00:00,34.9,33.3,29.95,SSW,208,0.0,1.0,94,0.00,,,0.00,Wunderground v.1.15,2013-02-03 12:00:00,
2013-02-03 07:05:00,35.0,33.4,29.95,SSW,208,1.0,2.0,94,0.00,,,0.00,Wunderground v.1.15,2013-02-03 12:05:00,
2013-02-03 07:11:00,35.0,33.4,29.95,SSW,208,2.0,2.0,94,0.00,,,0.00,Wunderground v.1.15,2013-02-03 12:11:00,
2013-02-03 07:17:00,34.8,33.2,29.95,SSW,208,1.0,2.0,94,0.00,,,0.00,Wunderground v.1.15,2013-02-03 12:17:00,
2013-02-03 07:22:00,34.8,33.2,29.95,SSW,208,1.0,1.0,94,0.00,,,0.00,Wunderground v.1.15,2013-02-03 12:22:00,
2013-02-03 07:28:00,34.6,33.1,29.95,SSW,208,1.0,4.0,94,0.00,,,0.00,Wunderground v.1.15,2013-02-03 12:28:00,
2013-02-03 07:34:00,34.5,33.0,29.95,SSW,198,2.0,3.0,94,0.00,,,0.00,Wunderground v.1.15,2013-02-03 12:34:00,
2013-02-03 07:39:00,34.3,32.8,29.96,SSW,198,2.0,3.0,94,0.00,,,0.00,Wunderground v.1.15,2013-02-03 12:39:00,
2013-02-03 07:45:00,34.2,32.7,29.96,SSW,198,1.0,2.0,94,0.00,,,0.00,Wunderground v.1.15,2013-02-03 12:45:00,
2013-02-03 07:51:00,33.9,32.4,29.96,SSW,198,2.0,2.0,94,0.00,,,0.00,Wunderground v.1.15,2013-02-03 12:51:00,
2013-02-03 07:57:00,33.6,32.1,29.96,SSW,198,2.0,2.0,94,0.00,,,0.00,Wunderground v.1.15,2013-02-03 12:57:00,
2013-02-03 08:02:00,33.7,32.2,29.96,SSW,205,2.0,3.0,94,0.00,,,0.00,Wunderground v.1.15,2013-02-03 13:02:00,
2013-02-03 08:08:00,34.1,32.6,29.96,SSW,207,3.0,5.0,94,0.00,,,0.00,Wunderground v.1.15,2013-02-03 13:08:00,
2013-02-03 08:14:00,34.2,32.9,29.96,SSW,207,2.0,5.0,95,0.00,,,0.00,Wunderground v.1.15,2013-02-03 13:14:00,
2013-02-03 08:20:00,34.3,33.0,29.96,SSW,207,2.0,2.0,95,0.00,,,0.00,Wunderground v.1.15,2013-02-03 13:20:00,
2013-02-03 08:25:00,34.4,32.9,29.96,SSW,200,2.0,3.0,94,0.00,,,0.00,Wunderground v.1.15,2013-02-03 13:25:00,
2013-02-03 08:31:00,34.6,33.1,29.96,SSW,200,1.0,2.0,94,0.00,,,0.00,Wunderground v.1.15,2013-02-03 13:31:00,
2013-02-03 08:37:00,35.0,33.4,29.96,SSW,200,2.0,3.0,94,0.00,,,0.00,Wunderground v.1.15,2013-02-03 13:37:00,
2013-02-03 08:42:00,35.4,33.8,29.96,SW,234,2.0,5.0,94,0.00,,,0.00,Wunderground v.1.15,2013-02-03 13:42:00,
2013-02-03 08:48:00,36.0,34.2,29.96,SW,236,4.0,6.0,93,0.00,,,0.00,Wunderground v.1.15,2013-02-03 13:48:00,
2013-02-03 08:54:00,36.4,34.3,29.96,SW,216,4.0,6.0,92,0.00,,,0.00,Wunderground v.1.15,2013-02-03 13:54:00,
2013-02-03 08:59:00,36.8,34.4,29.97,West,259,4.0,6.0,91,0.00,,,0.00,Wunderground v.1.15,2013-02-03 13:59:00,
2013-02-03 09:05:00,37.3,34.4,29.97,WSW,246,4.0,4.0,89,0.00,,,0.00,Wunderground v.1.15,2013-02-03 14:05:00,
2013-02-03 09:10:00,37.8,34.3,29.97,WSW,238,4.0,6.0,87,0.00,,,0.00,Wunderground v.1.15,2013-02-03 14:10:00,
2013-02-03 09:16:00,38.1,33.7,29.97,WSW,256,4.0,6.0,84,0.00,,,0.00,Wunderground v.1.15,2013-02-03 14:16:00,
2013-02-03 09:22:00,38.4,33.7,29.97,SW,222,6.0,7.0,83,0.00,,,0.00,Wunderground v.1.15,2013-02-03 14:22:00,
2013-02-03 09:27:00,38.7,34.3,29.97,WNW,292,5.0,7.0,84,0.00,,,0.00,Wunderground v.1.15,2013-02-03 14:27:00,
2013-02-03 09:33:00,39.1,33.5,29.97,West,259,4.0,6.0,80,0.00,,,0.00,Wunderground v.1.15,2013-02-03 14:33:00,
2013-02-03 09:38:00,39.3,33.6,29.97,West,259,4.0,6.0,80,0.00,,,0.00,Wunderground v.1.15,2013-02-03 14:38:00,
2013-02-03 09:44:00,39.3,32.7,29.97,NNW,333,4.0,8.0,77,0.00,,,0.00,Wunderground v.1.15,2013-02-03 14:44:00,
2013-02-03 09:49:00,40.0,33.4,29.97,West,265,4.0,8.0,77,0.00,,,0.00,Wunderground v.1.15,2013-02-03 14:49:00,
2013-02-03 09:55:00,40.2,32.2,29.97,NNW,335,4.0,8.0,73,0.00,,,0.00,Wunderground v.1.15,2013-02-03 14:55:00,
2013-02-03 10:00:00,40.3,30.9,29.97,NNW,339,4.0,4.0,69,0.00,,,0.00,Wunderground v.1.15,2013-02-03 15:00:00,
2013-02-03 10:06:00,40.9,30.8,29.97,WNW,290,4.0,8.0,67,0.00,,,0.00,Wunderground v.1.15,2013-02-03 15:06:00,
2013-02-03 10:12:00,40.6,30.9,29.97,WSW,242,5.0,6.0,68,0.00,,,0.00,Wunderground v.1.15,2013-02-03 15:12:00,
2013-02-03 10:17:00,40.7,31.0,29.97,WSW,248,5.0,7.0,68,0.00,,,0.00,Wunderground v.1.15,2013-02-03 15:17:00,
2013-02-03 10:23:00,40.7,30.2,29.97,WSW,257,5.0,5.0,66,0.00,,,0.00,Wunderground v.1.15,2013-02-03 15:23:00,
2013-02-03 10:28:00,40.9,30.4,29.97,WSW,250,4.0,6.0,66,0.00,,,0.00,Wunderground v.1.15,2013-02-03 15:28:00,
2013-02-03 10:34:00,41.2,29.9,29.96,West,264,5.0,7.0,64,0.00,,,0.00,Wunderground v.1.15,2013-02-03 15:34:00,
2013-02-03 10:39:00,41.2,29.5,29.96,North,360,5.0,7.0,63,0.00,,,0.00,Wunderground v.1.15,2013-02-03 15:39:00,
2013-02-03 10:45:00,41.1,29.8,29.96,WNW,296,5.0,9.0,64,0.00,,,0.00,Wunderground v.1.15,2013-02-03 15:45:00,
2013-02-03 10:51:00,40.8,28.4,29.96,West,269,4.0,4.0,61,0.00,,,0.00,Wunderground v.1.15,2013-02-03 15:51:00,
2013-02-03 10:57:00,40.8,28.8,29.96,NW,323,4.0,7.0,62,0.00,,,0.00,Wunderground v.1.15,2013-02-03 15:57:00,
2013-02-03 11:02:00,41.0,29.4,29.96,NW,308,4.0,7.0,63,0.00,,,0.00,Wunderground v.1.15,2013-02-03 16:02:00,
2013-02-03 11:08:00,41.0,29.0,29.96,North,355,4.0,7.0,62,0.00,,,0.00,Wunderground v.1.15,2013-02-03 16:08:00,
2013-02-03 11:14:00,41.0,29.4,29.96,West,271,4.0,7.0,63,0.00,,,0.00,Wunderground v.1.15,2013-02-03 16:14:00,
2013-02-03 11:20:00,40.9,28.9,29.96,West,281,3.0,3.0,62,0.00,,,0.00,Wunderground v.1.15,2013-02-03 16:20:00,
2013-02-03 11:25:00,40.9,28.9,29.96,WNW,292,2.0,8.0,62,0.00,,,0.00,Wunderground v.1.15,2013-02-03 16:25:00,
2013-02-03 11:31:00,41.2,29.2,29.95,NNE,18,2.0,2.0,62,0.00,,,0.00,Wunderground v.1.15,2013-02-03 16:31:00,
2013-02-03 11:37:00,41.5,29.0,29.95,West,279,4.0,8.0,61,0.00,,,0.00,Wunderground v.1.15,2013-02-03 16:37:00,
2013-02-03 11:42:00,41.5,28.2,29.95,West,278,4.0,6.0,59,0.00,,,0.00,Wunderground v.1.15,2013-02-03 16:42:00,
2013-02-03 11:48:00,41.8,28.9,29.95,WNW,293,4.0,9.0,60,0.00,,,0.00,Wunderground v.1.15,2013-02-03 16:48:00,
2013-02-03 11:54:00,42.2,28.9,29.94,West,266,5.0,9.0,59,0.00,,,0.00,Wunderground v.1.15,2013-02-03 16:54:00,
2013-02-03 12:00:00,42.9,28.7,29.94,West,278,6.0,6.0,57,0.00,,,0.00,Wunderground v.1.15,2013-02-03 17:00:00,
2013-02-03 12:06:00,43.6,28.9,29.94,SSW,211,6.0,11.0,56,0.00,,,0.00,Wunderground v.1.15,2013-02-03 17:06:00,
2013-02-03 12:11:00,43.6,28.9,29.94,WSW,247,6.0,16.0,56,0.00,,,0.00,Wunderground v.1.15,2013-02-03 17:11:00,
2013-02-03 12:17:00,44.0,28.0,29.93,West,264,9.0,16.0,53,0.00,,,0.00,Wunderground v.1.15,2013-02-03 17:17:00,
2013-02-03 12:23:00,43.3,27.8,29.93,SW,217,10.0,13.0,54,0.00,,,0.00,Wunderground v.1.15,2013-02-03 17:23:00,
2013-02-03 12:28:00,43.5,27.9,29.93,SW,225,10.0,13.0,54,0.00,,,0.00,Wunderground v.1.15,2013-02-03 17:28:00,
2013-02-03 12:34:00,43.7,28.1,29.92,SSW,207,10.0,11.0,54,0.00,,,0.00,Wunderground v.1.15,2013-02-03 17:34:00,
2013-02-03 12:40:00,44.0,28.4,29.92,WSW,254,9.0,9.0,54,0.00,,,0.00,Wunderground v.1.15,2013-02-03 17:40:00,
2013-02-03 12:46:00,43.7,28.1,29.91,WSW,241,9.0,11.0,54,0.00,,,0.00,Wunderground v.1.15,2013-02-03 17:46:00,
2013-02-03 12:51:00,44.4,28.8,29.91,SW,222,9.0,9.0,54,0.00,,,0.00,Wunderground v.1.15,2013-02-03 17:51:00,
2013-02-03 12:57:00,45.4,28.3,29.90,West,273,8.0,9.0,51,0.00,,,0.00,Wunderground v.1.15,2013-02-03 17:57:00,
2013-02-03 13:03:00,45.4,28.8,29.90,WSW,245,7.0,10.0,52,0.00,,,0.00,Wunderground v.1.15,2013-02-03 18:03:00,
2013-02-03 13:08:00,45.5,28.9,29.89,SSW,207,8.0,13.0,52,0.00,,,0.00,Wunderground v.1.15,2013-02-03 18:08:00,
2013-02-03 13:14:00,45.2,29.1,29.89,WSW,254,9.0,11.0,53,0.00,,,0.00,Wunderground v.1.15,2013-02-03 18:14:00,
2013-02-03 13:19:00,45.0,28.9,29.89,WNW,291,6.0,11.0,53,0.00,,,0.00,Wunderground v.1.15,2013-02-03 18:19:00,
2013-02-03 13:25:00,46.0,29.3,29.89,SSW,193,6.0,10.0,52,0.00,,,0.00,Wunderground v.1.15,2013-02-03 18:25:00,
2013-02-03 13:31:00,46.2,29.1,29.89,SSW,204,8.0,8.0,51,0.00,,,0.00,Wunderground v.1.15,2013-02-03 18:31:00,
2013-02-03 13:36:00,46.2,29.1,29.88,SW,232,8.0,11.0,51,0.00,,,0.00,Wunderground v.1.15,2013-02-03 18:36:00,
2013-02-03 13:42:00,46.1,28.5,29.88,SW,234,8.0,8.0,50,0.00,,,0.00,Wunderground v.1.15,2013-02-03 18:42:00,
2013-02-03 13:48:00,46.0,28.9,29.88,West,262,7.0,12.0,51,0.00,,,0.00,Wunderground v.1.15,2013-02-03 18:48:00,
2013-02-03 13:53:00,46.5,28.8,29.87,West,266,6.0,7.0,50,0.00,,,0.00,Wunderground v.1.15,2013-02-03 18:53:00,
2013-02-03 13:59:00,46.8,28.6,29.87,SSW,199,7.0,16.0,49,0.00,,,0.00,Wunderground v.1.15,2013-02-03 18:59:00,
2013-02-03 14:05:00,47.5,29.3,29.87,SSW,204,11.0,20.0,49,0.00,,,0.00,Wunderground v.1.15,2013-02-03 19:05:00,
2013-02-03 14:10:00,47.9,29.1,29.86,SSW,213,13.0,17.0,48,0.00,,,0.00,Wunderground v.1.15,2013-02-03 19:10:00,
2013-02-03 14:16:00,47.9,29.6,29.86,SW,221,13.0,18.0,49,0.00,,,0.00,Wunderground v.1.15,2013-02-03 19:16:00,
2013-02-03 14:22:00,47.5,28.8,29.86,SW,226,10.0,16.0,48,0.00,,,0.00,Wunderground v.1.15,2013-02-03 19:22:00,
2013-02-03 14:27:00,47.7,29.5,29.86,SW,230,10.0,16.0,49,0.00,,,0.00,Wunderground v.1.15,2013-02-03 19:27:00,
2013-02-03 14:33:00,48.6,29.8,29.86,WSW,240,10.0,15.0,48,0.00,,,0.00,Wunderground v.1.15,2013-02-03 19:33:00,
2013-02-03 14:39:00,48.3,29.5,29.86,SSW,201,10.0,15.0,48,0.00,,,0.00,Wunderground v.1.15,2013-02-03 19:39:00,
2013-02-03 14:45:00,47.4,29.2,29.86,SSW,213,10.0,17.0,49,0.00,,,0.00,Wunderground v.1.15,2013-02-03 19:45:00,
2013-02-03 14:50:00,47.0,29.3,29.86,SW,235,11.0,12.0,50,0.00,,,0.00,Wunderground v.1.15,2013-02-03 19:50:00,
2013-02-03 14:56:00,47.0,29.3,29.86,SSW,209,12.0,16.0,50,0.00,,,0.00,Wunderground v.1.15,2013-02-03 19:56:00,
2013-02-03 15:02:00,46.7,29.0,29.87,WSW,239,11.0,12.0,50,0.00,,,0.00,Wunderground v.1.15,2013-02-03 20:02:00,
2013-02-03 15:08:00,46.6,29.4,29.87,SW,219,9.0,12.0,51,0.00,,,0.00,Wunderground v.1.15,2013-02-03 20:08:00,
2013-02-03 15:14:00,46.6,28.9,29.87,WSW,252,9.0,10.0,50,0.00,,,0.00,Wunderground v.1.15,2013-02-03 20:14:00,
2013-02-03 15:19:00,46.7,28.5,29.87,West,260,9.0,12.0,49,0.00,,,0.00,Wunderground v.1.15,2013-02-03 20:19:00,
2013-02-03 15:25:00,46.6,29.4,29.87,West,260,10.0,14.0,51,0.00,,,0.00,Wunderground v.1.15,2013-02-03 20:25:00,
2013-02-03 15:31:00,46.7,29.0,29.87,WSW,251,9.0,9.0,50,0.00,,,0.00,Wunderground v.1.15,2013-02-03 20:31:00,
2013-02-03 15:37:00,46.6,29.4,29.87,WSW,258,9.0,10.0,51,0.00,,,0.00,Wunderground v.1.15,2013-02-03 20:37:00,
2013-02-03 15:42:00,46.7,29.5,29.87,SW,225,10.0,12.0,51,0.00,,,0.00,Wunderground v.1.15,2013-02-03 20:42:00,
2013-02-03 15:48:00,46.7,30.0,29.87,West,272,8.0,16.0,52,0.00,,,0.00,Wunderground v.1.15,2013-02-03 20:48:00,
2013-02-03 15:54:00,46.8,29.6,29.87,West,275,6.0,11.0,51,0.00,,,0.00,Wunderground v.1.15,2013-02-03 20:54:00,
2013-02-03 16:00:00,46.7,29.5,29.87,WSW,247,7.0,9.0,51,0.00,,,0.00,Wunderground v.1.15,2013-02-03 21:00:00,
2013-02-03 16:05:00,46.6,29.4,29.87,West,260,7.0,9.0,51,0.00,,,0.00,Wunderground v.1.15,2013-02-03 21:05:00,
2013-02-03 16:11:00,46.5,29.3,29.87,WSW,241,7.0,7.0,51,0.00,,,0.00,Wunderground v.1.15,2013-02-03 21:11:00,
2013-02-03 16:17:00,46.5,29.3,29.88,West,273,5.0,7.0,51,0.00,,,0.00,Wunderground v.1.15,2013-02-03 21:17:00,
2013-02-03 16:23:00,46.6,29.9,29.88,West,269,4.0,6.0,52,0.00,,,0.00,Wunderground v.1.15,2013-02-03 21:23:00,
2013-02-03 16:28:00,46.7,29.5,29.88,SW,236,5.0,9.0,51,0.00,,,0.00,Wunderground v.1.15,2013-02-03 21:28:00,
2013-02-03 16:34:00,46.8,29.6,29.87,West,268,8.0,11.0,51,0.00,,,0.00,Wunderground v.1.15,2013-02-03 21:34:00,
2013-02-03 16:40:00,46.8,29.6,29.88,West,266,8.0,8.0,51,0.00,,,0.00,Wunderground v.1.15,2013-02-03 21:40:00,
2013-02-03 16:46:00,47.2,29.5,29.88,SW,234,6.0,8.0,50,0.00,,,0.00,Wunderground v.1.15,2013-02-03 21:46:00,
2013-02-03 16:52:00,47.7,29.5,29.89,WSW,250,5.0,5.0,49,0.00,,,0.00,Wunderground v.1.15,2013-02-03 21:52:00,
2013-02-03 16:58:00,47.6,29.4,29.89,WNW,286,4.0,6.0,49,0.00,,,0.00,Wunderground v.1.15,2013-02-03 21:58:00,
2013-02-03 17:03:00,47.7,28.9,29.89,NNW,327,4.0,4.0,48,0.00,,,0.00,Wunderground v.1.15,2013-02-03 22:03:00,
2013-02-03 17:09:00,47.5,28.3,29.90,West,271,5.0,9.0,47,0.00,,,0.00,Wunderground v.1.15,2013-02-03 22:09:00,
2013-02-03 17:15:00,46.9,27.7,29.90,West,278,5.0,7.0,47,0.00,,,0.00,Wunderground v.1.15,2013-02-03 22:15:00,
2013-02-03 17:21:00,46.3,26.6,29.91,WNW,303,7.0,10.0,46,0.00,,,0.00,Wunderground v.1.15,2013-02-03 22:21:00,
2013-02-03 17:26:00,46.0,26.4,29.91,West,259,6.0,14.0,46,0.00,,,0.00,Wunderground v.1.15,2013-02-03 22:26:00,
2013-02-03 17:32:00,45.8,26.2,29.92,West,269,5.0,5.0,46,0.00,,,0.00,Wunderground v.1.15,2013-02-03 22:32:00,
2013-02-03 17:38:00,45.3,25.7,29.92,WSW,257,5.0,9.0,46,0.00,,,0.00,Wunderground v.1.15,2013-02-03 22:38:00,
2013-02-03 17:44:00,44.9,25.9,29.92,West,271,4.0,7.0,47,0.00,,,0.00,Wunderground v.1.15,2013-02-03 22:44:00,
2013-02-03 17:50:00,44.7,26.2,29.93,West,264,5.0,5.0,48,0.00,,,0.00,Wunderground v.1.15,2013-02-03 22:50:00,
2013-02-03 17:56:00,44.5,26.0,29.93,WNW,297,3.0,7.0,48,0.00,,,0.00,Wunderground v.1.15,2013-02-03 22:56:00,
2013-02-03 18:01:00,44.3,26.3,29.93,WNW,287,3.0,4.0,49,0.00,,,0.00,Wunderground v.1.15,2013-02-03 23:01:00,
2013-02-03 18:07:00,44.0,26.0,29.93,WSW,241,3.0,5.0,49,0.00,,,0.00,Wunderground v.1.15,2013-02-03 23:07:00,
2013-02-03 18:13:00,43.6,26.2,29.93,WSW,252,3.0,7.0,50,0.00,,,0.00,Wunderground v.1.15,2013-02-03 23:13:00,
2013-02-03 18:18:00,43.4,26.0,29.93,NW,315,2.0,7.0,50,0.00,,,0.00,Wunderground v.1.15,2013-02-03 23:18:00,
2013-02-03 18:24:00,43.2,26.3,29.93,NNW,346,2.0,5.0,51,0.00,,,0.00,Wunderground v.1.15,2013-02-03 23:24:00,
2013-02-03 18:30:00,43.1,26.7,29.93,West,271,2.0,2.0,52,0.00,,,0.00,Wunderground v.1.15,2013-02-03 23:30:00,
2013-02-03 18:36:00,42.8,26.4,29.94,West,267,1.0,3.0,52,0.00,,,0.00,Wunderground v.1.15,2013-02-03 23:36:00,
2013-02-03 18:41:00,42.6,26.6,29.94,NNW,331,1.0,1.0,53,0.00,,,0.00,Wunderground v.1.15,2013-02-03 23:41:00,
2013-02-03 18:47:00,42.4,26.5,29.94,NNW,343,1.0,3.0,53,0.00,,,0.00,Wunderground v.1.15,2013-02-03 23:47:00,
2013-02-03 18:53:00,42.2,26.3,29.95,NNW,335,1.0,2.0,53,0.00,,,0.00,Wunderground v.1.15,2013-02-03 23:53:00,
2013-02-03 18:59:00,42.0,26.5,29.95,NNW,335,1.0,2.0,54,0.00,,,0.00,Wunderground v.1.15,2013-02-03 23:59:00,
2013-02-03 19:04:00,41.6,26.2,29.95,NNW,335,1.0,2.0,54,0.00,,,0.00,Wunderground v.1.15,2013-02-04 00:04:00,
2013-02-03 19:10:00,41.3,26.3,29.95,North,5,1.0,1.0,55,0.00,,,0.00,Wunderground v.1.15,2013-02-04 00:10:00,
2013-02-03 19:16:00,41.1,26.1,29.95,NW,325,1.0,5.0,55,0.00,,,0.00,Wunderground v.1.15,2013-02-04 00:16:00,
2013-02-03 19:22:00,41.0,26.5,29.96,NW,320,1.0,2.0,56,0.00,,,0.00,Wunderground v.1.15,2013-02-04 00:22:00,
2013-02-03 19:28:00,40.6,26.1,29.96,NW,317,0.0,2.0,56,0.00,,,0.00,Wunderground v.1.15,2013-02-04 00:28:00,
2013-02-03 19:33:00,40.5,26.0,29.96,NW,317,0.0,2.0,56,0.00,,,0.00,Wunderground v.1.15,2013-02-04 00:33:00,
2013-02-03 19:39:00,40.5,26.4,29.96,WSW,254,1.0,4.0,57,0.00,,,0.00,Wunderground v.1.15,2013-02-04 00:39:00,
2013-02-03 19:45:00,40.5,26.4,29.96,North,5,2.0,4.0,57,0.00,,,0.00,Wunderground v.1.15,2013-02-04 00:45:00,
2013-02-03 19:51:00,40.4,26.4,29.96,NNE,31,2.0,2.0,57,0.00,,,0.00,Wunderground v.1.15,2013-02-04 00:51:00,
2013-02-03 19:56:00,40.4,26.4,29.97,NNW,344,2.0,3.0,57,0.00,,,0.00,Wunderground v.1.15,2013-02-04 00:56:00,
2013-02-03 20:02:00,40.2,26.2,29.97,NW,325,1.0,2.0,57,0.00,,,0.00,Wunderground v.1.15,2013-02-04 01:02:00,
2013-02-03 20:08:00,40.0,26.0,29.98,NE,55,0.0,2.0,57,0.00,,,0.00,Wunderground v.1.15,2013-02-04 01:08:00,
2013-02-03 20:13:00,40.0,26.4,29.98,NE,54,0.0,1.0,58,0.00,,,0.00,Wunderground v.1.15,2013-02-04 01:13:00,
2013-02-03 20:19:00,39.8,26.2,29.98,NE,54,0.0,1.0,58,0.00,,,0.00,Wunderground v.1.15,2013-02-04 01:19:00,
2013-02-03 20:24:00,39.3,26.2,29.98,North,350,0.0,1.0,59,0.00,,,0.00,Wunderground v.1.15,2013-02-04 01:24:00,
2013-02-03 20:30:00,39.0,26.3,29.98,NW,323,1.0,4.0,60,0.00,,,0.00,Wunderground v.1.15,2013-02-04 01:30:00,
2013-02-03 20:36:00,39.1,26.4,29.98,NNW,344,2.0,8.0,60,0.00,,,0.00,Wunderground v.1.15,2013-02-04 01:36:00,
2013-02-03 20:41:00,39.1,26.4,29.98,NNE,15,2.0,3.0,60,0.00,,,0.00,Wunderground v.1.15,2013-02-04 01:41:00,
2013-02-03 20:46:00,39.1,26.4,29.99,North,349,1.0,3.0,60,0.00,,,0.00,Wunderground v.1.15,2013-02-04 01:46:00,
2013-02-03 20:52:00,38.9,26.2,29.99,North,349,0.0,0.0,60,0.00,,,0.00,Wunderground v.1.15,2013-02-04 01:52:00,
2013-02-03 20:58:00,38.7,26.4,29.98,North,349,1.0,4.0,61,0.00,,,0.00,Wunderground v.1.15,2013-02-04 01:58:00,
2013-02-03 21:03:00,38.5,26.6,29.98,NE,38,3.0,6.0,62,0.00,,,0.00,Wunderground v.1.15,2013-02-04 02:03:00,
2013-02-03 21:09:00,38.6,26.7,29.98,NNE,30,4.0,6.0,62,0.00,,,0.00,Wunderground v.1.15,2013-02-04 02:09:00,
2013-02-03 21:14:00,38.6,26.7,29.98,West,275,3.0,9.0,62,0.00,,,0.00,Wunderground v.1.15,2013-02-04 02:14:00,
2013-02-03 21:20:00,38.7,26.4,29.99,WNW,297,2.0,3.0,61,0.00,,,0.00,Wunderground v.1.15,2013-02-04 02:20:00,
2013-02-03 21:26:00,38.8,26.5,29.99,West,259,2.0,5.0,61,0.00,,,0.00,Wunderground v.1.15,2013-02-04 02:26:00,
2013-02-03 21:32:00,38.7,26.0,29.99,NNW,342,3.0,4.0,60,0.00,,,0.00,Wunderground v.1.15,2013-02-04 02:32:00,
2013-02-03 21:38:00,38.6,25.9,29.99,WSW,239,2.0,4.0,60,0.00,,,0.00,Wunderground v.1.15,2013-02-04 02:38:00,
2013-02-03 21:43:00,38.6,25.9,29.99,NW,305,3.0,4.0,60,0.00,,,0.00,Wunderground v.1.15,2013-02-04 02:43:00,
2013-02-03 21:49:00,38.6,25.9,29.99,NW,309,2.0,5.0,60,0.00,,,0.00,Wunderground v.1.15,2013-02-04 02:49:00,
2013-02-03 21:55:00,38.5,25.8,29.99,WNW,300,2.0,3.0,60,0.00,,,0.00,Wunderground v.1.15,2013-02-04 02:55:00,
2013-02-03 22:00:00,38.4,25.7,29.99,West,277,1.0,1.0,60,0.00,,,0.00,Wunderground v.1.15,2013-02-04 03:00:00,
2013-02-03 22:05:00,38.4,25.7,29.99,WSW,243,2.0,5.0,60,0.00,,,0.00,Wunderground v.1.15,2013-02-04 03:05:00,
2013-02-03 22:11:00,38.2,25.5,29.99,WSW,257,3.0,3.0,60,0.00,,,0.00,Wunderground v.1.15,2013-02-04 03:11:00,
2013-02-03 22:17:00,38.4,25.3,30.00,West,261,4.0,9.0,59,0.00,,,0.00,Wunderground v.1.15,2013-02-04 03:17:00,
2013-02-03 22:22:00,38.3,25.6,30.00,WSW,257,6.0,7.0,60,0.00,,,0.00,Wunderground v.1.15,2013-02-04 03:22:00,
2013-02-03 22:28:00,38.3,25.2,30.00,WNW,286,5.0,7.0,59,0.00,,,0.00,Wunderground v.1.15,2013-02-04 03:28:00,
2013-02-03 22:34:00,38.1,25.0,30.00,WSW,244,5.0,7.0,59,0.00,,,0.00,Wunderground v.1.15,2013-02-04 03:34:00,
2013-02-03 22:39:00,38.3,24.8,30.00,WSW,246,6.0,9.0,58,0.00,,,0.00,Wunderground v.1.15,2013-02-04 03:39:00,
2013-02-03 22:45:00,38.2,24.3,30.00,WSW,245,6.0,6.0,57,0.00,,,0.00,Wunderground v.1.15,2013-02-04 03:45:00,
2013-02-03 22:51:00,38.2,24.3,30.00,WNW,296,5.0,5.0,57,0.00,,,0.00,Wunderground v.1.15,2013-02-04 03:51:00,
2013-02-03 22:56:00,38.0,24.1,30.00,SW,230,3.0,5.0,57,0.00,,,0.00,Wunderground v.1.15,2013-02-04 03:56:00,
2013-02-03 23:02:00,37.8,23.9,30.00,SW,230,1.0,1.0,57,0.00,,,0.00,Wunderground v.1.15,2013-02-04 04:02:00,
2013-02-03 23:08:00,37.5,24.1,30.00,SW,230,0.0,2.0,58,0.00,,,0.00,Wunderground v.1.15,2013-02-04 04:08:00,
2013-02-03 23:14:00,37.4,24.0,30.00,SW,230,0.0,1.0,58,0.00,,,0.00,Wunderground v.1.15,2013-02-04 04:14:00,
2013-02-03 23:19:00,37.2,24.2,30.01,SW,230,0.0,1.0,59,0.00,,,0.00,Wunderground v.1.15,2013-02-04 04:19:00,
2013-02-03 23:25:00,35.8,24.0,30.01,North,355,1.0,3.0,62,0.00,,,0.00,Wunderground v.1.15,2013-02-04 04:25:00,
2013-02-03 23:31:00,35.8,24.4,30.01,North,355,0.0,1.0,63,0.00,,,0.00,Wunderground v.1.15,2013-02-04 04:31:00,
2013-02-03 23:37:00,36.1,23.9,30.01,North,355,0.0,2.0,61,0.00,,,0.00,Wunderground v.1.15,2013-02-04 04:37:00,
2013-02-03 23:42:00,36.1,24.3,30.01,North,9,0.0,0.0,62,0.00,,,0.00,Wunderground v.1.15,2013-02-04 04:42:00,
2013-02-03 23:48:00,36.0,24.2,30.01,WSW,257,1.0,4.0,62,0.00,,,0.00,Wunderground v.1.15,2013-02-04 04:48:00,
2013-02-03 23:54:00,36.3,24.1,30.01,West,275,1.0,1.0,61,0.00,,,0.00,Wunderground v.1.15,2013-02-04 04:54:00,